Archival Weather

Gondia Arpt/Birsi

Gondia Arpt/Birsi, India (VAGD)

Report from: Thursday, April 25, 2024 8:30 AM UTC
Current time: Saturday, June 22, 2024 8:38 AM UTC

Current weather – Weather history – Daily summaries
Weather forecast

Present weatherHaze
Temperature37.0°C (98.6°F)
Heat index41.1°C (106.0°F)
Dew point21.0°C (69.8°F)
Winds 4 kts (2.1 m/s, 4.6 mph) Southwest (230°)
Visibility3.1 mi. (5 km)
Clouds Few clouds 2,000 ft. (610 m)
Scattered clouds 10,000 ft. (3,048 m)
Altimeter29.74 in.Hg (1007 mB)
Relative humidity40 %
Density altitude3,031 ft. (924 m)
Remarks No significant changes expected in the next two hours
Flight conditions Marginal Visual Meteorological Conditions
Raw dataVAGD 250830Z 23004KT 5000 HZ FEW020 SCT100 37/21 Q1007 NOSIG
An error has occurred. This application may no longer respond until reloaded. Reload 🗙